Time;durP1;ratioP1;P1;durP2;ratioP2;P2;SDS_P1;SDS_P2;PMS_P1;PMS_P2;Temp;Humidity;BMP_temperature;BMP_pressure;BME280_temperature;BME280_humidity;BME280_pressure;Samples;Min_cycle;Max_cycle;Signal;HPM_P1;HPM_P2
2021/06/01 00:01:07;;;;;;;2.17;2.00;;;22.80;46.50;;;;;;5014961;28;20412;-80
2021/06/01 00:03:33;;;;;;;2.70;2.50;;;22.70;46.40;;;;;;5015380;28;20185;-79
2021/06/01 00:06:02;;;;;;;2.70;2.50;;;22.70;46.40;;;;;;5014052;28;20189;-79
2021/06/01 00:08:28;;;;;;;2.97;2.67;;;22.70;46.40;;;;;;5015290;28;20564;-79
2021/06/01 00:10:54;;;;;;;2.23;2.10;;;22.70;46.40;;;;;;5014465;28;20440;-79
2021/06/01 00:13:20;;;;;;;2.40;2.20;;;22.70;46.40;;;;;;5014769;28;20176;-80
2021/06/01 00:15:49;;;;;;;2.30;2.03;;;22.70;46.40;;;;;;5013375;28;20498;-80
2021/06/01 00:18:14;;;;;;;2.50;2.30;;;22.70;46.50;;;;;;5014227;28;20192;-79
2021/06/01 00:20:40;;;;;;;2.57;2.37;;;22.70;46.40;;;;;;5014560;28;20404;-79
2021/06/01 00:23:06;;;;;;;2.63;2.43;;;22.70;46.50;;;;;;5013688;28;20416;-79
2021/06/01 00:25:39;;;;;;;2.60;2.40;;;22.70;46.50;;;;;;5013157;28;20204;-79
2021/06/01 00:28:05;;;;;;;2.70;2.50;;;22.70;46.40;;;;;;5014760;28;20157;-80
2021/06/01 00:30:37;;;;;;;2.60;2.40;;;22.70;46.50;;;;;;5013775;28;20416;-79
2021/06/01 00:33:03;;;;;;;2.97;2.63;;;22.70;46.50;;;;;;5013099;28;20419;-80
2021/06/01 00:35:33;;;;;;;3.03;2.73;;;22.60;46.40;;;;;;5016627;28;20452;-80
2021/06/01 00:38:00;;;;;;;2.10;1.90;;;22.70;46.50;;;;;;5017007;28;20423;-79
2021/06/01 00:40:25;;;;;;;2.70;2.50;;;22.70;46.50;;;;;;5005304;28;20428;-80
2021/06/01 00:42:51;;;;;;;2.97;2.27;;;22.70;46.50;;;;;;5030170;28;20889;-79
2021/06/01 00:45:23;;;;;;;2.67;1.97;;;22.70;46.50;;;;;;5033035;28;20180;-80
2021/06/01 00:47:52;;;;;;;2.30;2.10;;;22.70;46.50;;;;;;5033948;28;20224;-79
2021/06/01 00:50:22;;;;;;;2.97;2.50;;;22.70;46.50;;;;;;5033133;28;20430;-80
2021/06/01 00:52:48;;;;;;;3.03;2.60;;;22.70;46.50;;;;;;5027806;28;20431;-81
2021/06/01 00:55:14;;;;;;;1.97;1.80;;;22.60;46.40;;;;;;5024165;28;20454;-81
2021/06/01 00:57:40;;;;;;;2.10;1.90;;;22.60;46.40;;;;;;5008204;28;20180;-81
2021/06/01 01:00:16;;;;;;;2.70;2.50;;;22.60;46.50;;;;;;5025199;28;20932;-81
2021/06/01 01:02:42;;;;;;;2.20;2.07;;;22.60;46.40;;;;;;5008029;28;20191;-81
2021/06/01 01:05:11;;;;;;;2.40;2.20;;;22.60;46.50;;;;;;5024189;28;20508;-81
2021/06/01 01:11:15;;;;;;;3.00;2.13;;;22.70;46.50;;;;;;5025441;28;20936;-81
2021/06/01 01:14:07;;;;;;;2.43;2.23;;;22.60;46.50;;;;;;5007476;28;20992;-82
2021/06/01 01:16:34;;;;;;;2.57;2.37;;;22.60;46.50;;;;;;5008177;28;20798;-82
2021/06/01 01:19:12;;;;;;;2.63;2.43;;;22.60;46.50;;;;;;5024647;28;20407;-81
2021/06/01 01:21:49;;;;;;;2.60;2.37;;;22.70;46.60;;;;;;5023927;28;20479;-81
2021/06/01 01:24:48;;;;;;;2.37;2.17;;;22.70;46.60;;;;;;5018215;28;20459;-81
2021/06/01 01:27:49;;;;;;;2.53;2.33;;;22.70;46.60;;;;;;5003870;28;20408;-81
2021/06/01 01:30:17;;;;;;;2.60;2.40;;;22.70;46.60;;;;;;5004433;28;20431;-81
2021/06/01 01:32:58;;;;;;;2.63;2.40;;;22.60;46.60;;;;;;5011009;28;20404;-79
2021/06/01 01:35:33;;;;;;;2.03;1.93;;;22.70;46.70;;;;;;5011846;28;20501;-80
2021/06/01 01:38:05;;;;;;;2.80;2.20;;;22.60;46.60;;;;;;4992515;28;20431;-79
2021/06/01 01:40:34;;;;;;;2.37;2.17;;;22.70;46.70;;;;;;5011667;28;20855;-79
2021/06/01 01:43:03;;;;;;;2.60;2.40;;;22.60;46.70;;;;;;4986653;28;20420;-79
2021/06/01 01:45:33;;;;;;;2.47;1.97;;;22.60;46.60;;;;;;4994591;28;20503;-79
2021/06/01 01:50:48;;;;;;;2.07;1.97;;;22.60;46.60;;;;;;5011357;28;20424;-79
2021/06/01 01:53:15;;;;;;;2.17;2.07;;;22.60;46.60;;;;;;5011419;28;20443;-79
2021/06/01 01:55:45;;;;;;;2.40;2.20;;;22.60;46.60;;;;;;5012627;28;20448;-80
2021/06/01 01:58:13;;;;;;;3.43;2.20;;;22.70;46.70;;;;;;4995372;28;20416;-79
2021/06/01 02:00:39;;;;;;;2.37;2.03;;;22.60;46.60;;;;;;4995316;28;20435;-79
2021/06/01 02:03:05;;;;;;;2.30;2.10;;;22.60;46.60;;;;;;5010470;28;20423;-79
2021/06/01 02:05:31;;;;;;;2.00;1.90;;;22.60;46.60;;;;;;4990079;28;20425;-79
2021/06/01 02:07:58;;;;;;;2.03;1.93;;;22.60;46.60;;;;;;5006059;28;20444;-79
2021/06/01 02:10:24;;;;;;;2.00;1.90;;;22.60;46.60;;;;;;5002075;28;20208;-79
2021/06/01 02:12:49;;;;;;;2.30;2.10;;;22.60;46.60;;;;;;5011789;28;20423;-79
2021/06/01 02:15:15;;;;;;;2.20;2.00;;;22.60;46.60;;;;;;5011963;28;20197;-79
2021/06/01 02:17:44;;;;;;;2.40;2.20;;;22.60;46.60;;;;;;5012326;28;20415;-79
2021/06/01 02:20:14;;;;;;;1.80;1.67;;;22.60;46.60;;;;;;5013624;28;20188;-79
2021/06/01 02:25:41;;;;;;;2.00;1.90;;;22.60;46.60;;;;;;5019168;28;20476;-79
2021/06/01 02:28:27;;;;;;;2.27;2.07;;;22.60;46.60;;;;;;5011733;28;20420;-80
2021/06/01 02:31:01;;;;;;;1.90;1.70;;;22.60;46.60;;;;;;5011275;28;20416;-80
2021/06/01 02:33:33;;;;;;;2.00;1.90;;;22.60;46.60;;;;;;4993080;28;20418;-80
2021/06/01 02:36:01;;;;;;;2.67;2.47;;;22.60;46.60;;;;;;4996106;28;20491;-80
2021/06/01 02:38:31;;;;;;;3.10;2.00;;;22.60;46.70;;;;;;4994722;28;20463;-80
2021/06/01 02:40:58;;;;;;;2.30;1.90;;;22.60;46.70;;;;;;5011800;28;20448;-80
2021/06/01 02:43:24;;;;;;;1.70;1.57;;;22.60;46.70;;;;;;5011250;28;20436;-79
2021/06/01 02:45:52;;;;;;;3.00;2.40;;;22.60;46.70;;;;;;5011799;28;20416;-80
2021/06/01 02:48:21;;;;;;;2.43;2.00;;;22.60;46.70;;;;;;4994534;28;20812;-80
2021/06/01 02:50:50;;;;;;;2.50;2.30;;;22.60;46.60;;;;;;5011479;28;20424;-80
2021/06/01 02:53:16;;;;;;;2.40;2.20;;;22.60;46.70;;;;;;5010678;28;20416;-79
2021/06/01 02:55:42;;;;;;;2.93;2.57;;;22.60;46.70;;;;;;5012158;28;20486;-79
2021/06/01 02:58:12;;;;;;;2.30;2.10;;;22.60;46.70;;;;;;5013983;28;20831;-80
2021/06/01 03:00:39;;;;;;;3.13;2.13;;;22.60;46.70;;;;;;5011111;28;20417;-79
2021/06/01 03:03:11;;;;;;;1.70;1.60;;;22.60;46.70;;;;;;5011562;28;20400;-78
2021/06/01 03:05:39;;;;;;;2.37;2.17;;;22.60;46.70;;;;;;4997248;28;20420;-80
2021/06/01 03:08:29;;;;;;;2.40;2.07;;;22.60;46.70;;;;;;5014144;28;20436;-80
2021/06/01 03:11:03;;;;;;;2.10;1.90;;;22.60;46.70;;;;;;4996639;28;20424;-80
2021/06/01 03:13:30;;;;;;;2.40;2.20;;;22.60;46.70;;;;;;5013717;28;20435;-80
2021/06/01 03:15:56;;;;;;;2.50;2.00;;;22.50;46.60;;;;;;4996244;28;20811;-79
2021/06/01 03:18:22;;;;;;;2.00;1.80;;;22.50;46.60;;;;;;5013958;28;20412;-80
2021/06/01 03:20:48;;;;;;;2.60;2.00;;;22.60;46.70;;;;;;5013138;28;20409;-80
2021/06/01 03:23:15;;;;;;;2.27;2.07;;;22.60;47.20;;;;;;5013897;28;20427;-80
2021/06/01 03:25:41;;;;;;;2.37;1.93;;;22.60;46.70;;;;;;5014112;28;20428;-79
2021/06/01 03:28:07;;;;;;;1.87;1.77;;;22.60;46.70;;;;;;4996267;28;20474;-80
2021/06/01 03:30:34;;;;;;;2.37;2.00;;;22.60;46.70;;;;;;5013471;28;20910;-80
2021/06/01 03:33:00;;;;;;;3.90;2.20;;;22.60;46.70;;;;;;5013166;28;20201;-80
2021/06/01 03:35:26;;;;;;;2.23;1.60;;;22.60;46.70;;;;;;4995308;28;20452;-80
2021/06/01 03:37:54;;;;;;;2.37;2.10;;;22.60;46.80;;;;;;5012139;28;20508;-79
2021/06/01 03:40:21;;;;;;;2.00;1.80;;;22.60;46.70;;;;;;5010189;28;20416;-80
2021/06/01 03:42:47;;;;;;;1.97;1.80;;;22.60;46.80;;;;;;4994683;28;20428;-80
2021/06/01 03:45:13;;;;;;;2.43;2.23;;;22.60;46.70;;;;;;4993819;28;20431;-79
2021/06/01 03:47:40;;;;;;;2.03;1.70;;;22.60;46.80;;;;;;4996388;28;20547;-80
2021/06/01 03:50:07;;;;;;;2.37;2.13;;;22.60;46.80;;;;;;5029805;28;20411;-80
2021/06/01 03:52:33;;;;;;;2.10;1.90;;;22.60;46.80;;;;;;5018308;28;20447;-80
2021/06/01 03:54:59;;;;;;;1.90;1.80;;;22.60;46.80;;;;;;5010262;28;20456;-80
2021/06/01 03:57:25;;;;;;;2.20;2.00;;;22.60;46.80;;;;;;4992861;28;20440;-80
2021/06/01 03:59:50;;;;;;;1.93;1.83;;;22.60;46.80;;;;;;4992359;28;20424;-80
2021/06/01 04:02:16;;;;;;;2.40;2.20;;;22.60;46.80;;;;;;5009966;28;20514;-80
2021/06/01 04:04:44;;;;;;;2.60;2.17;;;22.60;46.80;;;;;;5005611;28;20698;-80
2021/06/01 04:07:10;;;;;;;2.60;2.07;;;22.60;46.80;;;;;;4989604;28;20440;-80
2021/06/01 04:12:58;;;;;;;2.20;2.00;;;22.60;46.70;;;;;;4990905;28;20383;-80
2021/06/01 04:15:25;;;;;;;2.00;1.80;;;22.60;46.80;;;;;;4983074;28;20500;-80
2021/06/01 04:17:53;;;;;;;2.00;1.90;;;22.60;46.80;;;;;;4991040;28;20182;-80
2021/06/01 04:20:20;;;;;;;1.90;1.80;;;22.60;46.80;;;;;;4973678;28;20425;-80
2021/06/01 04:22:46;;;;;;;2.43;2.23;;;22.60;46.80;;;;;;5006750;28;20429;-79
2021/06/01 04:25:12;;;;;;;2.20;1.73;;;22.70;46.80;;;;;;5011821;28;20427;-80
2021/06/01 04:27:41;;;;;;;2.07;1.87;;;22.60;46.80;;;;;;4994789;28;20428;-80
2021/06/01 04:30:08;;;;;;;1.90;1.70;;;22.70;46.80;;;;;;5015558;28;20229;-80
2021/06/01 04:32:34;;;;;;;2.10;1.90;;;22.70;46.80;;;;;;4997189;28;20420;-79
2021/06/01 04:34:59;;;;;;;1.80;1.70;;;22.70;46.80;;;;;;5014208;28;20554;-79
2021/06/01 04:37:25;;;;;;;1.70;1.60;;;22.70;46.70;;;;;;5012789;28;20424;-80
2021/06/01 04:39:51;;;;;;;2.03;1.80;;;22.70;46.70;;;;;;5013500;28;20201;-80
2021/06/01 04:42:17;;;;;;;2.57;2.37;;;22.70;46.70;;;;;;5013674;28;20176;-80
2021/06/01 04:44:43;;;;;;;1.93;1.73;;;22.80;46.80;;;;;;5012587;28;20173;-81
2021/06/01 04:47:08;;;;;;;2.03;1.73;;;22.80;46.80;;;;;;5011354;28;20184;-80
2021/06/01 04:49:37;;;;;;;2.40;1.77;;;22.80;46.70;;;;;;5011403;28;20507;-80
2021/06/01 04:52:03;;;;;;;2.13;1.93;;;22.80;46.70;;;;;;5010959;28;20244;-80
2021/06/01 04:54:29;;;;;;;2.00;1.80;;;22.80;46.70;;;;;;5011819;28;20818;-80
2021/06/01 04:56:55;;;;;;;2.83;2.13;;;22.80;46.60;;;;;;5009435;28;20416;-81
2021/06/01 04:59:21;;;;;;;2.30;2.10;;;22.80;46.60;;;;;;5010086;28;20427;-81
2021/06/01 05:01:47;;;;;;;2.53;2.07;;;22.80;46.60;;;;;;5010312;28;20205;-80
2021/06/01 05:04:12;;;;;;;1.67;1.57;;;22.90;46.70;;;;;;4993619;28;20173;-80
2021/06/01 05:10:01;;;;;;;2.20;1.90;;;22.90;46.70;;;;;;5010593;28;20211;-81
2021/06/01 05:12:33;;;;;;;1.80;1.70;;;22.90;46.70;;;;;;4993149;28;20404;-81
2021/06/01 05:14:59;;;;;;;1.87;1.77;;;22.90;46.70;;;;;;4993811;28;20786;-81
2021/06/01 05:17:25;;;;;;;2.13;1.93;;;22.90;46.80;;;;;;4999453;28;20410;-81
2021/06/01 05:19:50;;;;;;;1.70;1.60;;;22.90;46.80;;;;;;5006362;28;20421;-80
2021/06/01 05:22:17;;;;;;;1.80;1.70;;;22.90;46.70;;;;;;4992963;28;20424;-80
2021/06/01 05:24:44;;;;;;;1.80;1.70;;;22.90;46.80;;;;;;5010613;28;20191;-81
2021/06/01 05:27:10;;;;;;;3.27;2.00;;;22.90;46.70;;;;;;5009302;28;20432;-80
2021/06/01 05:29:41;;;;;;;1.80;1.70;;;23.00;46.80;;;;;;4993625;28;20427;-80
2021/06/01 05:32:31;;;;;;;2.10;1.90;;;23.00;46.80;;;;;;5010558;28;20761;-81
2021/06/01 05:35:04;;;;;;;2.43;2.23;;;23.00;46.80;;;;;;5011004;28;20523;-81
2021/06/01 05:37:35;;;;;;;1.97;1.87;;;23.00;46.80;;;;;;5004025;28;20456;-81
2021/06/01 05:40:04;;;;;;;1.70;1.40;;;23.00;46.80;;;;;;4990241;28;20427;-81
2021/06/01 05:42:32;;;;;;;2.00;1.50;;;23.00;46.80;;;;;;5003709;28;20424;-81
2021/06/01 05:44:58;;;;;;;1.90;1.80;;;23.00;46.80;;;;;;5010075;28;20428;-81
2021/06/01 05:47:23;;;;;;;2.30;2.10;;;23.00;46.80;;;;;;5010643;28;20454;-81
2021/06/01 05:53:12;;;;;;;1.93;1.60;;;23.00;46.80;;;;;;5009396;28;20184;-82
2021/06/01 05:55:38;;;;;;;1.70;1.60;;;23.00;46.80;;;;;;4992420;28;20558;-80
2021/06/01 05:58:07;;;;;;;1.70;1.60;;;23.00;46.80;;;;;;5007889;28;20435;-81
2021/06/01 06:00:33;;;;;;;1.73;1.63;;;23.00;46.80;;;;;;4992518;28;20427;-80
2021/06/01 06:03:02;;;;;;;1.90;1.80;;;23.00;46.80;;;;;;4992116;28;20496;-80
2021/06/01 06:05:29;;;;;;;1.73;1.60;;;23.00;46.80;;;;;;5010104;28;20412;-80
2021/06/01 06:07:55;;;;;;;1.80;1.70;;;23.00;46.80;;;;;;4994444;28;20419;-82
2021/06/01 06:10:21;;;;;;;1.93;1.83;;;23.00;46.80;;;;;;4996819;28;20782;-80
2021/06/01 06:12:47;;;;;;;2.00;1.90;;;23.10;46.90;;;;;;4996280;28;20444;-81
2021/06/01 06:15:17;;;;;;;1.80;1.70;;;23.00;46.80;;;;;;4997035;28;20208;-80
2021/06/01 06:18:01;;;;;;;1.80;1.70;;;23.10;46.90;;;;;;4996550;28;20247;-83
2021/06/01 06:20:27;;;;;;;2.30;2.00;;;23.10;46.90;;;;;;5014691;28;20399;-80
2021/06/01 06:22:53;;;;;;;2.00;1.80;;;23.10;46.90;;;;;;4997680;28;20424;-80
2021/06/01 06:25:19;;;;;;;1.77;1.67;;;23.10;46.90;;;;;;5013989;28;20204;-80
2021/06/01 06:27:45;;;;;;;1.90;1.80;;;23.10;46.90;;;;;;4996808;28;20420;-80
2021/06/01 06:30:12;;;;;;;1.90;1.70;;;23.10;46.90;;;;;;5013848;28;20415;-80
2021/06/01 06:32:38;;;;;;;2.20;2.00;;;23.10;46.90;;;;;;5012901;28;20184;-82
2021/06/01 06:35:05;;;;;;;3.83;1.87;;;23.10;46.90;;;;;;4996856;28;20531;-81
2021/06/01 06:37:31;;;;;;;2.10;1.90;;;23.10;46.90;;;;;;4999230;28;20174;-80
2021/06/01 06:39:57;;;;;;;1.70;1.60;;;23.10;46.80;;;;;;4998424;28;20412;-80
2021/06/01 06:42:23;;;;;;;1.77;1.67;;;23.10;46.90;;;;;;4998618;28;20229;-79
2021/06/01 06:44:52;;;;;;;1.60;1.50;;;23.10;46.90;;;;;;4998402;28;20420;-79
2021/06/01 06:49:45;;;;;;;2.40;1.90;;;23.10;46.80;;;;;;4995854;28;20417;-80
2021/06/01 06:52:16;;;;;;;1.60;1.50;;;23.10;46.80;;;;;;4996142;28;20412;-80
2021/06/01 06:54:42;;;;;;;2.07;1.87;;;23.20;46.90;;;;;;4995533;28;20457;-81
2021/06/01 06:57:08;;;;;;;2.53;1.80;;;23.10;46.90;;;;;;4996568;28;20417;-80
2021/06/01 06:59:34;;;;;;;1.70;1.60;;;23.20;46.90;;;;;;4996250;28;20774;-80
2021/06/01 07:02:04;;;;;;;2.13;1.80;;;23.20;46.90;;;;;;4994344;28;20409;-83
2021/06/01 07:04:30;;;;;;;1.80;1.70;;;23.20;47.00;;;;;;4988292;28;20409;-82
2021/06/01 07:06:57;;;;;;;2.33;1.80;;;23.20;47.00;;;;;;4988399;28;20477;-82
2021/06/01 07:09:26;;;;;;;2.60;2.40;;;23.20;47.00;;;;;;4987126;28;20895;-83
2021/06/01 07:11:52;;;;;;;1.77;1.67;;;23.20;47.10;;;;;;4988545;28;20801;-82
2021/06/01 07:14:17;;;;;;;1.90;1.70;;;23.20;47.10;;;;;;4987604;28;20413;-82
2021/06/01 07:16:44;;;;;;;1.70;1.60;;;23.20;47.10;;;;;;4987182;28;20537;-83
2021/06/01 07:19:11;;;;;;;1.80;1.63;;;23.30;47.20;;;;;;4985695;28;20202;-82
2021/06/01 07:21:37;;;;;;;2.17;1.60;;;23.30;47.20;;;;;;4987826;28;20410;-81
2021/06/01 07:24:10;;;;;;;1.73;1.50;;;23.30;47.20;;;;;;4988943;28;20425;-80
2021/06/01 07:26:36;;;;;;;1.60;1.50;;;23.30;47.20;;;;;;4990202;28;20477;-80
2021/06/01 07:29:02;;;;;;;2.93;2.33;;;23.30;47.30;;;;;;4990407;28;20429;-80
2021/06/01 07:31:28;;;;;;;3.30;2.60;;;23.30;47.20;;;;;;4992005;28;20480;-80
2021/06/01 07:33:56;;;;;;;2.50;2.30;;;23.30;47.30;;;;;;4991054;28;20432;-80
2021/06/01 07:36:22;;;;;;;2.23;2.03;;;23.30;47.30;;;;;;4990515;28;20209;-80
2021/06/01 07:38:48;;;;;;;3.20;2.23;;;23.30;47.30;;;;;;4990804;28;20425;-80
2021/06/01 07:41:14;;;;;;;2.43;2.13;;;23.30;47.30;;;;;;4991661;28;20460;-80
2021/06/01 07:44:15;;;;;;;3.80;3.13;;;23.40;47.40;;;;;;4992268;28;20201;-80
2021/06/01 07:46:46;;;;;;;3.33;2.47;;;23.40;47.40;;;;;;4991128;28;20197;-80
2021/06/01 07:49:12;;;;;;;2.73;2.50;;;23.40;47.50;;;;;;5010305;28;20855;-80
2021/06/01 07:51:41;;;;;;;2.30;2.10;;;23.40;47.50;;;;;;4994349;28;20439;-80
2021/06/01 07:54:07;;;;;;;6.87;2.83;;;23.40;47.50;;;;;;5009463;28;20184;-81
2021/06/01 07:56:34;;;;;;;2.77;2.47;;;23.40;47.50;;;;;;5010782;28;20550;-80
2021/06/01 07:59:00;;;;;;;3.60;2.47;;;23.40;47.50;;;;;;4993935;28;20181;-80
2021/06/01 08:01:26;;;;;;;2.60;2.40;;;23.40;47.50;;;;;;4993402;28;20447;-80
2021/06/01 08:03:54;;;;;;;2.93;2.53;;;23.40;47.50;;;;;;5010562;28;20172;-80
2021/06/01 08:06:20;;;;;;;3.33;2.97;;;23.50;47.60;;;;;;5010045;28;20460;-80
2021/06/01 08:08:46;;;;;;;3.60;2.77;;;23.40;47.50;;;;;;5011708;28;20420;-80
2021/06/01 08:14:34;;;;;;;4.27;2.80;;;23.50;47.50;;;;;;5011595;28;20203;-80
2021/06/01 08:17:00;;;;;;;3.37;2.90;;;23.50;47.60;;;;;;5009387;28;20488;-81
2021/06/01 08:19:30;;;;;;;4.33;3.37;;;23.50;47.60;;;;;;5010718;28;20188;-80
2021/06/01 08:24:29;;;;;;;4.17;2.90;;;23.50;47.60;;;;;;5011732;28;20392;-80
2021/06/01 08:26:55;;;;;;;5.73;2.90;;;23.50;47.60;;;;;;5009436;28;20432;-80
2021/06/01 08:29:22;;;;;;;2.60;2.40;;;23.50;47.60;;;;;;4993134;28;20177;-80
2021/06/01 08:31:48;;;;;;;4.03;3.20;;;23.50;47.60;;;;;;5010524;28;20177;-80
2021/06/01 08:34:14;;;;;;;7.23;4.60;;;23.50;47.60;;;;;;5009621;28;20451;-80
2021/06/01 08:36:40;;;;;;;4.10;3.00;;;23.60;47.70;;;;;;5008989;28;20467;-80
2021/06/01 08:39:11;;;;;;;4.60;3.23;;;23.50;47.60;;;;;;5009006;28;20244;-80
2021/06/01 08:41:38;;;;;;;2.93;2.70;;;23.60;48.30;;;;;;4992701;28;20173;-80
2021/06/01 08:44:05;;;;;;;4.00;2.97;;;23.60;47.70;;;;;;4976839;28;20420;-80
2021/06/01 08:46:33;;;;;;;3.53;2.90;;;23.60;48.30;;;;;;4992165;28;20412;-80
2021/06/01 08:48:59;;;;;;;3.37;2.13;;;23.60;47.70;;;;;;5008928;28;20422;-80
2021/06/01 08:51:34;;;;;;;3.90;3.20;;;23.50;47.60;;;;;;4992668;28;20853;-80
2021/06/01 08:57:59;;;;;;;3.30;2.63;;;23.60;47.70;;;;;;4911614;29;20432;-80
2021/06/01 09:00:28;;;;;;;3.40;2.37;;;23.60;47.70;;;;;;4913121;29;20424;-81
2021/06/01 09:03:12;;;;;;;3.90;2.60;;;23.60;47.80;;;;;;4897737;29;20447;-80
2021/06/01 09:05:59;;;;;;;4.50;2.70;;;23.60;47.70;;;;;;4913754;29;20428;-80
2021/06/01 09:11:43;;;;;;;4.43;3.23;;;23.60;47.80;;;;;;4913219;29;20737;-80
2021/06/01 09:23:16;;;;;;;2.90;2.67;;;23.60;47.80;;;;;;4911829;29;20404;-80
2021/06/01 09:25:57;;;;;;;4.97;3.57;;;23.60;47.80;;;;;;4911928;29;20525;-80
2021/06/01 09:28:22;;;;;;;4.97;3.03;;;23.60;47.80;;;;;;4895738;29;20413;-80
2021/06/01 09:30:58;;;;;;;3.40;2.80;;;23.60;47.80;;;;;;4911000;29;20432;-80
2021/06/01 09:33:50;;;;;;;5.47;3.20;;;23.60;47.80;;;;;;4938929;28;20199;-80
2021/06/01 09:36:21;;;;;;;4.63;2.60;;;23.60;47.80;;;;;;5013951;28;20440;-80
2021/06/01 09:38:50;;;;;;;5.70;2.87;;;23.60;47.80;;;;;;4997601;28;20542;-81
2021/06/01 09:41:27;;;;;;;4.07;3.50;;;23.60;47.80;;;;;;4997365;28;20420;-80
2021/06/01 09:44:00;;;;;;;3.20;2.57;;;23.70;47.80;;;;;;5000240;28;20408;-80
2021/06/01 09:46:45;;;;;;;4.07;2.90;;;23.70;47.80;;;;;;5001690;28;20416;-80
2021/06/01 09:49:14;;;;;;;3.10;2.50;;;23.70;47.80;;;;;;4985319;28;20428;-80
2021/06/01 09:51:44;;;;;;;3.57;2.30;;;23.60;47.80;;;;;;5018078;28;20431;-80
2021/06/01 09:54:34;;;;;;;6.00;3.10;;;23.60;47.80;;;;;;5000673;28;20412;-80
2021/06/01 09:57:02;;;;;;;5.00;3.00;;;23.60;47.70;;;;;;4999315;28;20495;-82
2021/06/01 09:59:31;;;;;;;3.33;2.93;;;23.60;47.80;;;;;;4996217;28;20480;-82
2021/06/01 10:01:57;;;;;;;4.23;2.70;;;23.60;47.80;;;;;;5012920;28;20456;-80
2021/06/01 10:04:28;;;;;;;3.63;3.17;;;23.70;47.80;;;;;;5013526;28;20421;-80
2021/06/01 10:06:55;;;;;;;3.17;2.87;;;23.60;47.80;;;;;;4996411;28;20181;-80
2021/06/01 10:09:21;;;;;;;4.73;2.87;;;23.70;47.80;;;;;;4996930;28;20463;-80
2021/06/01 10:11:58;;;;;;;3.40;2.37;;;23.60;47.70;;;;;;5013597;28;20923;-80
2021/06/01 10:14:24;;;;;;;3.10;2.40;;;23.70;47.80;;;;;;5013739;28;20411;-80
2021/06/01 10:16:51;;;;;;;2.90;2.63;;;23.70;47.80;;;;;;4995524;28;20455;-80
2021/06/01 10:19:17;;;;;;;3.57;2.80;;;23.70;47.80;;;;;;5013381;28;20424;-80
2021/06/01 10:21:44;;;;;;;3.00;2.37;;;23.70;47.80;;;;;;4996375;28;20423;-80
2021/06/01 10:24:15;;;;;;;3.77;3.17;;;23.70;47.80;;;;;;5013920;28;20487;-80
2021/06/01 10:26:44;;;;;;;2.97;2.67;;;23.70;47.80;;;;;;5014065;28;20447;-80
2021/06/01 10:29:10;;;;;;;3.33;2.67;;;23.70;47.80;;;;;;4996457;28;20420;-80
2021/06/01 10:31:42;;;;;;;3.60;2.43;;;23.70;47.80;;;;;;5012622;28;20420;-80
2021/06/01 10:34:19;;;;;;;5.40;2.30;;;23.70;47.80;;;;;;4996458;28;20419;-80
2021/06/01 10:51:26;;;;;;;3.27;2.50;;;23.70;48.00;;;;;;5012363;28;20407;-80
2021/06/01 10:53:54;;;;;;;2.60;2.37;;;23.70;48.00;;;;;;5013314;28;20427;-80
2021/06/01 10:56:20;;;;;;;4.80;2.93;;;23.70;48.00;;;;;;5012045;28;20459;-80
2021/06/01 10:58:52;;;;;;;2.53;2.20;;;23.70;48.00;;;;;;5013120;28;20463;-80
2021/06/01 11:04:12;;;;;;;4.07;2.80;;;23.70;48.00;;;;;;5013782;28;20416;-80
2021/06/01 11:06:59;;;;;;;6.23;3.17;;;23.70;48.00;;;;;;5012088;28;20423;-81
2021/06/01 11:09:34;;;;;;;3.10;2.60;;;23.70;48.00;;;;;;5012431;28;20413;-80
2021/06/01 11:12:12;;;;;;;3.13;2.33;;;23.70;48.00;;;;;;5013303;28;20430;-80
2021/06/01 11:14:39;;;;;;;2.93;2.30;;;23.70;48.00;;;;;;5012940;28;20412;-80
2021/06/01 11:17:04;;;;;;;3.77;2.53;;;23.80;48.10;;;;;;4995757;28;20436;-80
2021/06/01 11:20:00;;;;;;;3.23;2.30;;;23.70;48.00;;;;;;4996132;28;20462;-80
2021/06/01 11:33:42;;;;;;;2.40;2.20;;;23.70;48.00;;;;;;5006217;28;20412;-80
2021/06/01 11:36:16;;;;;;;3.10;2.40;;;23.70;48.00;;;;;;5029313;28;20491;-80
2021/06/01 11:43:58;;;;;;;6.07;3.00;;;23.70;48.00;;;;;;5032130;28;20415;-80
2021/06/01 11:46:39;;;;;;;4.03;2.70;;;23.70;48.00;;;;;;5031162;28;20479;-80
2021/06/01 11:51:49;;;;;;;8.00;2.90;;;23.70;48.10;;;;;;5032404;28;20555;-80
2021/06/01 11:54:16;;;;;;;6.70;3.17;;;23.70;48.10;;;;;;5031218;28;20415;-80
2021/06/01 11:56:54;;;;;;;6.00;3.50;;;23.70;48.10;;;;;;5031003;28;20672;-80
2021/06/01 12:05:10;;;;;;;8.00;4.17;;;23.60;47.90;;;;;;5030688;28;20414;-80
2021/06/01 12:18:39;;;;;;;8.53;4.40;;;23.60;47.90;;;;;;5030583;28;20454;-85
2021/06/01 12:21:19;;;;;;;8.60;4.47;;;23.60;47.90;;;;;;5005294;28;20426;-81
2021/06/01 12:23:50;;;;;;;8.43;4.77;;;23.70;48.00;;;;;;4995039;28;20397;-81
2021/06/01 12:26:21;;;;;;;10.20;4.20;;;23.60;47.90;;;;;;4994087;28;20422;-80
2021/06/01 12:31:52;;;;;;;9.10;4.30;;;23.70;48.00;;;;;;5012529;28;20391;-80
2021/06/01 12:34:30;;;;;;;9.10;4.97;;;23.60;47.90;;;;;;4995040;28;20455;-79
2021/06/01 12:42:53;;;;;;;10.13;4.00;;;23.60;47.90;;;;;;5031647;28;20394;-80
2021/06/01 12:45:28;;;;;;;6.70;4.73;;;23.60;47.90;;;;;;5014518;28;20498;-80
2021/06/01 13:19:21;;;;;;;10.07;4.37;;;23.60;47.80;;;;;;5031221;28;20443;-79
2021/06/01 13:22:05;;;;;;;4.30;3.37;;;23.50;47.80;;;;;;5029888;28;20419;-80
2021/06/01 13:39:16;;;;;;;3.97;3.10;;;23.50;47.80;;;;;;4998155;28;20422;-82
2021/06/01 13:47:08;;;;;;;6.47;3.33;;;23.60;47.70;;;;;;5026508;28;20191;-82
2021/06/01 13:49:47;;;;;;;3.23;2.93;;;23.60;47.70;;;;;;5026001;28;20908;-82
2021/06/01 13:55:44;;;;;;;6.30;3.00;;;23.60;47.70;;;;;;5026349;28;20450;-82
2021/06/01 14:27:53;;;;;;;3.50;2.53;;;23.50;47.50;;;;;;5030213;28;20390;-79
2021/06/01 14:30:42;;;;;;;3.03;2.73;;;23.50;47.50;;;;;;5033037;28;20399;-79
2021/06/01 14:39:20;;;;;;;3.57;2.67;;;23.50;47.50;;;;;;4974119;29;20449;-79
2021/06/01 15:28:45;;;;;;;6.30;3.00;;;23.50;47.40;;;;;;4996639;28;20902;-79
2021/06/01 15:50:23;;;;;;;6.90;2.80;;;23.50;47.30;;;;;;4995883;28;20425;-79
2021/06/01 15:53:29;;;;;;;3.77;2.67;;;23.60;47.40;;;;;;4992253;28;20424;-78
2021/06/01 16:12:56;;;;;;;5.70;2.63;;;23.50;47.40;;;;;;5007570;28;20423;-80
2021/06/01 16:15:32;;;;;;;4.83;3.13;;;23.50;47.40;;;;;;5033935;28;20466;-80
2021/06/01 17:05:52;;;;;;;5.93;2.80;;;23.50;47.40;;;;;;5015022;28;20400;-79
2021/06/01 17:11:48;;;;;;;4.80;2.20;;;23.40;47.30;;;;;;4956359;29;20431;-79
2021/06/01 17:14:16;;;;;;;3.50;2.27;;;23.40;47.40;;;;;;4941236;28;20418;-80
2021/06/01 17:16:54;;;;;;;2.20;1.77;;;23.40;47.40;;;;;;4997602;28;20463;-79
2021/06/01 17:20:04;;;;;;;2.87;2.57;;;23.40;47.40;;;;;;4998563;28;20427;-79
2021/06/01 17:36:19;;;;;;;3.87;2.20;;;23.40;47.40;;;;;;5014288;28;20434;-79
2021/06/01 17:38:45;;;;;;;3.43;2.27;;;23.40;47.30;;;;;;4997239;28;20451;-79
2021/06/01 17:41:15;;;;;;;8.70;2.10;;;23.50;47.40;;;;;;4980511;28;20448;-80
2021/06/01 17:43:48;;;;;;;2.57;2.37;;;23.40;47.40;;;;;;4996959;28;20424;-79
2021/06/01 17:46:18;;;;;;;2.53;2.00;;;23.40;47.40;;;;;;4997053;28;20412;-79
2021/06/01 17:48:57;;;;;;;2.30;1.73;;;23.40;47.40;;;;;;5014650;28;20499;-80
2021/06/01 17:51:31;;;;;;;3.80;2.30;;;23.40;47.40;;;;;;4997005;28;20392;-80
2021/06/01 17:54:04;;;;;;;2.60;2.00;;;23.40;47.40;;;;;;5012905;28;20802;-79
2021/06/01 17:56:33;;;;;;;3.70;2.40;;;23.40;47.40;;;;;;5014134;28;20950;-80
2021/06/01 17:58:59;;;;;;;3.03;2.20;;;23.40;47.40;;;;;;4993278;28;20489;-80
2021/06/01 18:04:50;;;;;;;6.87;2.40;;;23.50;47.40;;;;;;5017759;28;20386;-79
2021/06/01 18:07:33;;;;;;;2.80;2.20;;;23.40;47.40;;;;;;5001014;28;20416;-80
2021/06/01 19:51:49;;;;;;;2.40;2.00;;;23.40;47.60;;;;;;4942363;29;20454;-79
2021/06/01 20:00:43;;;;;;;3.20;1.97;;;23.30;47.50;;;;;;4976384;29;20397;-78
2021/06/01 20:03:09;;;;;;;2.73;2.03;;;23.30;47.60;;;;;;4959663;29;20405;-79
2021/06/01 20:05:42;;;;;;;2.73;2.10;;;23.30;47.60;;;;;;4959637;29;20458;-78
2021/06/01 20:08:12;;;;;;;2.73;1.73;;;23.30;47.60;;;;;;4959683;29;20418;-80
2021/06/01 20:10:45;;;;;;;3.57;2.07;;;23.40;47.60;;;;;;4959869;29;20422;-80
2021/06/01 20:13:11;;;;;;;2.50;1.80;;;23.40;47.60;;;;;;4959600;29;20493;-80
2021/06/01 20:15:39;;;;;;;5.40;2.13;;;23.40;47.60;;;;;;4996344;28;20455;-80
2021/06/01 20:18:09;;;;;;;3.20;2.37;;;23.30;47.50;;;;;;4998256;28;20287;-80
2021/06/01 20:20:45;;;;;;;5.07;2.07;;;23.40;47.60;;;;;;4998045;28;20417;-80
2021/06/01 20:23:33;;;;;;;3.27;2.30;;;23.40;47.60;;;;;;5013504;28;20439;-80
2021/06/01 20:25:59;;;;;;;2.80;1.97;;;23.40;48.20;;;;;;4997921;28;20416;-80
2021/06/01 20:28:39;;;;;;;4.87;3.00;;;23.40;47.60;;;;;;4998052;28;20431;-80
2021/06/01 20:31:18;;;;;;;4.60;2.50;;;23.40;47.60;;;;;;4998228;28;20518;-80
2021/06/01 20:33:50;;;;;;;3.27;2.30;;;23.40;47.60;;;;;;4994517;28;20420;-80
2021/06/01 20:36:22;;;;;;;2.90;2.27;;;23.40;47.60;;;;;;5013124;28;20448;-80